createdAt,value
2018-09-04T00:01:24.526Z,14.00
2018-09-04T00:03:52.569Z,14.10
2018-09-04T00:06:20.345Z,15.40
2018-09-04T00:08:48.146Z,14.60
2018-09-04T00:11:15.869Z,12.77
2018-09-04T00:13:43.609Z,16.17
2018-09-04T00:16:11.349Z,13.90
2018-09-04T00:18:40.273Z,13.27
2018-09-04T00:21:08.069Z,13.83
2018-09-04T00:23:35.769Z,14.40
2018-09-04T00:26:03.652Z,13.70
2018-09-04T00:28:31.428Z,13.60
2018-09-04T00:30:59.156Z,15.70
2018-09-04T00:33:26.844Z,14.23
2018-09-04T00:35:54.573Z,13.23
2018-09-04T00:38:22.284Z,14.10
2018-09-04T00:40:50.057Z,14.13
2018-09-04T00:43:17.760Z,14.50
2018-09-04T00:45:45.485Z,15.37
2018-09-04T00:48:13.288Z,13.13
2018-09-04T00:50:41.040Z,15.50
2018-09-04T00:53:08.738Z,15.10
2018-09-04T00:55:36.486Z,15.07
2018-09-04T00:58:04.820Z,16.13
2018-09-04T01:00:32.533Z,16.80
2018-09-04T01:03:00.248Z,14.37
2018-09-04T01:05:28.195Z,14.47
2018-09-04T01:07:55.948Z,15.67
2018-09-04T01:10:23.655Z,15.50
2018-09-04T01:12:51.889Z,15.90
2018-09-04T01:15:19.637Z,15.50
2018-09-04T01:17:47.400Z,16.90
2018-09-04T01:20:15.519Z,15.50
2018-09-04T01:22:43.230Z,15.90
2018-09-04T01:25:10.959Z,16.87
2018-09-04T01:27:38.684Z,17.53
2018-09-04T01:30:06.766Z,16.03
2018-09-04T01:32:34.497Z,17.50
2018-09-04T01:35:02.227Z,14.40
2018-09-04T01:37:29.973Z,17.00
2018-09-04T01:39:57.756Z,16.67
2018-09-04T01:42:25.500Z,16.10
2018-09-04T01:44:53.221Z,16.80
2018-09-04T01:47:21.016Z,16.53
2018-09-04T01:49:48.761Z,16.67
2018-09-04T01:52:16.668Z,18.27
2018-09-04T01:54:44.391Z,17.00
2018-09-04T01:57:12.181Z,18.40
2018-09-04T01:59:39.875Z,17.10
2018-09-04T02:02:07.565Z,17.13
2018-09-04T02:04:35.280Z,16.40
2018-09-04T02:07:03.227Z,16.40
2018-09-04T02:09:31.000Z,20.07
2018-09-04T02:11:58.716Z,21.77
2018-09-04T02:14:26.423Z,21.57
2018-09-04T02:16:54.173Z,20.83
2018-09-04T02:19:21.880Z,19.30
2018-09-04T02:21:49.929Z,18.00
2018-09-04T02:24:17.648Z,23.87
2018-09-04T02:26:45.388Z,21.27
2018-09-04T02:29:13.124Z,25.50
2018-09-04T02:31:40.809Z,22.13
2018-09-04T02:34:08.513Z,20.83
2018-09-04T02:36:36.235Z,22.13
2018-09-04T02:39:06.463Z,20.90
2018-09-04T02:41:34.179Z,21.37
2018-09-04T02:44:02.016Z,24.13
2018-09-04T02:46:29.768Z,24.30
2018-09-04T02:48:57.480Z,21.43
2018-09-04T02:51:25.203Z,24.87
2018-09-04T02:53:52.996Z,23.07
2018-09-04T02:56:20.737Z,25.33
2018-09-04T02:58:48.541Z,23.77
2018-09-04T03:01:16.238Z,24.67
2018-09-04T03:03:43.935Z,22.57
2018-09-04T03:06:11.616Z,23.37
2018-09-04T03:08:39.405Z,23.90
2018-09-04T03:11:07.099Z,22.30
2018-09-04T03:13:34.815Z,21.77
2018-09-04T03:16:02.527Z,25.93
2018-09-04T03:18:30.222Z,25.30
2018-09-04T03:20:57.931Z,24.83
2018-09-04T03:23:25.790Z,23.70
2018-09-04T03:25:53.521Z,22.37
2018-09-04T03:28:21.214Z,24.10
2018-09-04T03:30:49.260Z,25.77
2018-09-04T03:33:16.976Z,27.53
2018-09-04T03:35:44.692Z,26.13
2018-09-04T03:38:12.411Z,24.40
2018-09-04T03:40:40.133Z,25.37
2018-09-04T03:43:07.876Z,26.37
2018-09-04T03:45:35.608Z,25.23
2018-09-04T03:48:03.487Z,26.97
2018-09-04T03:50:31.208Z,27.23
2018-09-04T03:52:58.940Z,27.10
2018-09-04T03:55:26.667Z,28.20
2018-09-04T03:57:54.385Z,25.33
2018-09-04T04:00:22.079Z,27.97
2018-09-04T04:02:49.825Z,28.23
2018-09-04T04:05:17.545Z,27.00
2018-09-04T04:07:45.284Z,26.30
2018-09-04T04:10:13.019Z,28.40
2018-09-04T04:12:40.754Z,28.43
2018-09-04T04:15:08.475Z,25.60
2018-09-04T04:17:36.277Z,29.70
2018-09-04T04:20:04.118Z,28.13
2018-09-04T04:22:31.836Z,28.60
2018-09-04T04:24:59.569Z,27.90
2018-09-04T04:27:27.260Z,28.57
2018-09-04T04:29:55.055Z,29.10
2018-09-04T04:32:22.843Z,26.37
2018-09-04T04:34:50.547Z,28.07
2018-09-04T04:37:19.063Z,27.53
2018-09-04T04:39:46.788Z,31.67
2018-09-04T04:42:14.497Z,29.20
2018-09-04T04:44:42.208Z,28.77
2018-09-04T04:47:09.913Z,27.40
2018-09-04T04:49:37.685Z,28.20
2018-09-04T04:52:05.455Z,27.87
2018-09-04T04:54:33.144Z,26.27
2018-09-04T04:57:00.864Z,27.33
2018-09-04T04:59:28.577Z,29.77
2018-09-04T05:01:56.380Z,28.93
2018-09-04T05:04:24.089Z,28.50
2018-09-04T05:06:51.936Z,26.93
2018-09-04T05:09:19.704Z,27.00
2018-09-04T05:11:47.421Z,27.00
2018-09-04T05:14:15.137Z,27.00
2018-09-04T05:16:42.905Z,28.70
2018-09-04T05:19:10.587Z,25.77
2018-09-04T05:21:38.318Z,25.93
2018-09-04T05:24:06.025Z,26.77
2018-09-04T05:26:33.725Z,28.13
2018-09-04T05:29:01.472Z,29.23
2018-09-04T05:31:33.721Z,27.10
2018-09-04T05:34:01.513Z,27.90
2018-09-04T05:36:29.251Z,27.00
2018-09-04T05:38:56.959Z,26.40
2018-09-04T05:41:24.688Z,29.67
2018-09-04T05:43:57.400Z,26.57
2018-09-04T05:46:57.264Z,27.23
2018-09-04T05:49:30.704Z,27.23
2018-09-04T05:51:58.431Z,28.13
2018-09-04T05:54:26.252Z,24.40
2018-09-04T05:56:53.994Z,24.10
2018-09-04T05:59:21.720Z,27.67
2018-09-04T06:01:49.506Z,26.77
2018-09-04T06:04:17.273Z,23.33
2018-09-04T06:06:44.998Z,25.60
2018-09-04T06:09:12.780Z,23.03
2018-09-04T06:11:40.580Z,23.37
2018-09-04T06:14:08.346Z,26.00
2018-09-04T06:16:36.097Z,25.17
2018-09-04T06:19:03.966Z,26.60
2018-09-04T06:21:31.675Z,24.90
2018-09-04T06:23:59.396Z,26.90
2018-09-04T06:26:27.105Z,26.30
2018-09-04T06:28:54.833Z,30.00
2018-09-04T06:31:22.577Z,29.57
2018-09-04T06:33:50.290Z,29.50
2018-09-04T06:36:18.020Z,32.40
2018-09-04T06:38:45.757Z,31.80
2018-09-04T06:41:13.520Z,33.40
2018-09-04T06:43:41.261Z,31.97
2018-09-04T06:46:08.995Z,30.00
2018-09-04T06:48:36.916Z,30.30
2018-09-04T06:51:04.721Z,31.80
2018-09-04T06:53:32.485Z,31.27
2018-09-04T06:56:00.248Z,30.80
2018-09-04T06:58:28.003Z,34.27
2018-09-04T07:00:55.757Z,31.50
2018-09-04T07:03:23.540Z,29.00
2018-09-04T07:05:51.315Z,28.90
2018-09-04T07:08:19.061Z,28.00
2018-09-04T07:10:46.800Z,27.17
2018-09-04T07:13:14.612Z,27.37
2018-09-04T07:15:42.356Z,29.13
2018-09-04T07:18:10.138Z,30.90
2018-09-04T07:20:37.901Z,33.30
2018-09-04T07:23:05.763Z,32.30
2018-09-04T07:25:33.510Z,31.73
2018-09-04T07:28:01.281Z,31.87
2018-09-04T07:30:29.023Z,28.97
2018-09-04T07:32:56.765Z,29.47
2018-09-04T07:35:24.498Z,28.40
2018-09-04T07:37:52.276Z,29.10
2018-09-04T07:40:20.017Z,32.17
2018-09-04T07:42:47.756Z,32.83
2018-09-04T07:45:15.500Z,28.90
2018-09-04T07:47:43.214Z,30.60
2018-09-04T07:50:11.020Z,27.80
2018-09-04T07:52:38.755Z,29.13
2018-09-04T07:55:07.014Z,30.90
2018-09-04T07:57:34.746Z,30.47
2018-09-04T08:00:02.551Z,26.63
2018-09-04T08:02:30.320Z,27.70
2018-09-04T08:04:58.093Z,28.07
2018-09-04T08:07:25.824Z,27.40
2018-09-04T08:09:53.625Z,26.07
2018-09-04T08:12:21.381Z,27.43
2018-09-04T08:14:49.209Z,24.73
2018-09-04T08:17:16.993Z,25.83
2018-09-04T08:19:44.695Z,26.83
2018-09-04T08:22:12.419Z,23.60
2018-09-04T08:24:40.144Z,25.03
2018-09-04T08:27:07.896Z,22.93
2018-09-04T08:29:35.600Z,23.03
2018-09-04T08:32:03.384Z,22.23
2018-09-04T08:34:31.162Z,25.70
2018-09-04T08:36:58.927Z,20.10
2018-09-04T08:39:26.696Z,19.37
2018-09-04T08:41:54.475Z,20.83
2018-09-04T08:44:22.192Z,18.57
2018-09-04T08:46:49.937Z,21.10
2018-09-04T08:49:17.656Z,18.20
2018-09-04T08:51:45.340Z,20.23
2018-09-04T08:54:13.058Z,19.00
2018-09-04T08:56:40.783Z,19.23
2018-09-04T08:59:08.505Z,14.90
2018-09-04T09:01:36.214Z,20.17
2018-09-04T09:04:03.969Z,20.37
2018-09-04T09:06:31.664Z,18.40
2018-09-04T09:08:59.381Z,17.63
2018-09-04T09:11:27.101Z,20.20
2018-09-04T09:13:54.819Z,19.10
2018-09-04T09:16:22.590Z,19.23
2018-09-04T09:18:50.330Z,17.47
2018-09-04T09:21:18.031Z,20.47
2018-09-04T09:23:45.716Z,20.47
2018-09-04T09:26:13.423Z,17.20
2018-09-04T09:28:41.102Z,17.17
2018-09-04T09:31:08.845Z,15.60
2018-09-04T09:33:36.541Z,15.40
2018-09-04T09:36:04.463Z,14.90
2018-09-04T09:38:32.147Z,16.37
2018-09-04T09:40:59.866Z,12.97
2018-09-04T09:43:27.563Z,12.47
2018-09-04T09:45:55.261Z,13.80
2018-09-04T09:48:27.508Z,13.90
2018-09-04T09:50:55.210Z,13.07
2018-09-04T09:53:23.140Z,12.97
2018-09-04T09:55:50.692Z,13.60
2018-09-04T09:58:18.424Z,13.63
2018-09-04T10:00:52.241Z,14.50
2018-09-04T10:03:25.510Z,13.47
2018-09-04T10:05:53.414Z,13.63
2018-09-04T10:08:21.134Z,13.67
2018-09-04T10:10:48.837Z,12.73
2018-09-04T10:13:16.580Z,12.80
2018-09-04T10:15:44.309Z,15.13
2018-09-04T10:18:12.032Z,13.77
2018-09-04T10:20:39.778Z,14.30
2018-09-04T10:23:07.557Z,12.43
2018-09-04T10:25:35.297Z,12.80
2018-09-04T10:28:03.044Z,11.93
2018-09-04T10:30:30.790Z,11.63
2018-09-04T10:32:58.492Z,11.10
2018-09-04T10:35:26.218Z,11.43
2018-09-04T10:37:53.911Z,11.77
2018-09-04T10:40:27.799Z,12.00
2018-09-04T10:42:55.469Z,11.23
2018-09-04T10:45:28.784Z,10.60
2018-09-04T10:47:56.475Z,10.20
2018-09-04T10:50:24.188Z,10.17
2018-09-04T10:52:52.155Z,11.53
2018-09-04T10:55:19.963Z,10.83
2018-09-04T10:57:47.746Z,9.43
2018-09-04T11:00:16.377Z,10.30
2018-09-04T11:02:44.208Z,10.00
2018-09-04T11:05:12.010Z,9.83
2018-09-04T11:07:39.741Z,9.73
2018-09-04T11:10:07.538Z,10.20
2018-09-04T11:12:35.262Z,9.10
2018-09-04T11:15:03.008Z,9.70
2018-09-04T11:17:30.757Z,9.13
2018-09-04T11:19:58.468Z,9.10
2018-09-04T11:22:26.292Z,7.67
2018-09-04T11:24:54.689Z,9.00
2018-09-04T11:27:22.650Z,9.70
2018-09-04T11:29:50.429Z,9.20
2018-09-04T11:32:18.290Z,8.53
2018-09-04T11:34:45.994Z,9.10
2018-09-04T11:37:13.724Z,10.00
2018-09-04T11:39:41.457Z,9.33
2018-09-04T11:42:11.486Z,10.60
2018-09-04T11:44:39.237Z,11.37
2018-09-04T11:47:06.931Z,10.83
2018-09-04T11:49:34.672Z,9.13
2018-09-04T11:52:02.408Z,9.40
2018-09-04T11:54:30.143Z,9.50
2018-09-04T11:56:57.870Z,10.23
2018-09-04T11:59:25.721Z,10.57
2018-09-04T12:01:56.310Z,9.17
2018-09-04T12:04:24.129Z,9.97
2018-09-04T12:06:51.893Z,10.27
2018-09-04T12:09:19.616Z,10.03
2018-09-04T12:11:51.873Z,9.40
2018-09-04T12:14:19.637Z,9.73
2018-09-04T12:16:47.404Z,10.30
2018-09-04T12:19:15.233Z,10.77
2018-09-04T12:21:42.909Z,10.20
2018-09-04T12:24:10.656Z,9.90
2018-09-04T12:26:38.413Z,9.73
2018-09-04T12:29:07.400Z,9.67
2018-09-04T12:31:35.282Z,10.33
2018-09-04T12:34:03.168Z,9.20
2018-09-04T12:36:30.909Z,10.50
2018-09-04T12:38:59.941Z,9.90
2018-09-04T12:41:27.701Z,11.30
2018-09-04T12:43:55.846Z,10.57
2018-09-04T12:46:28.229Z,9.73
2018-09-04T12:48:56.185Z,9.80
2018-09-04T12:51:24.087Z,9.57
2018-09-04T12:53:53.108Z,10.13
2018-09-04T12:56:21.210Z,10.13
2018-09-04T12:58:48.977Z,9.30
2018-09-04T13:01:16.722Z,10.20
2018-09-04T13:03:44.476Z,11.23
2018-09-04T13:06:12.225Z,12.50
2018-09-04T13:08:40.119Z,12.70
2018-09-04T13:11:07.876Z,10.97
2018-09-04T13:13:35.643Z,11.40
2018-09-04T13:16:03.680Z,11.30
2018-09-04T13:18:31.566Z,10.70
2018-09-04T13:21:01.916Z,10.43
2018-09-04T13:23:30.498Z,11.00
2018-09-04T13:25:58.352Z,11.67
2018-09-04T13:28:26.742Z,11.20
2018-09-04T13:30:54.611Z,11.23
2018-09-04T13:33:22.406Z,10.63
2018-09-04T13:35:51.283Z,11.77
2018-09-04T13:38:19.085Z,11.07
2018-09-04T13:40:46.905Z,11.10
2018-09-04T13:43:14.725Z,10.73
2018-09-04T13:45:42.598Z,9.87
2018-09-04T13:48:10.553Z,10.80
2018-09-04T13:50:38.478Z,10.70
2018-09-04T13:53:06.347Z,10.33
2018-09-04T13:55:34.176Z,10.47
2018-09-04T13:58:01.923Z,10.70
2018-09-04T14:00:29.840Z,9.73
2018-09-04T14:02:57.585Z,10.60
2018-09-04T14:05:25.367Z,10.50
2018-09-04T14:07:53.200Z,12.57
2018-09-04T14:10:20.950Z,10.73
2018-09-04T14:12:48.672Z,10.70
2018-09-04T14:15:16.505Z,9.83
2018-09-04T14:17:44.360Z,11.70
2018-09-04T14:20:12.125Z,12.30
2018-09-04T14:22:39.880Z,12.87
2018-09-04T14:25:07.611Z,11.80
2018-09-04T14:27:35.452Z,10.53
2018-09-04T14:30:17.041Z,10.93
2018-09-04T14:32:31.254Z,10.57
2018-09-04T14:34:59.035Z,10.20
2018-09-04T14:37:26.903Z,11.60
2018-09-04T14:39:55.584Z,11.47
2018-09-04T14:42:24.872Z,11.40
2018-09-04T14:44:52.728Z,11.93
2018-09-04T14:47:20.396Z,11.70
2018-09-04T14:49:48.154Z,11.17
2018-09-04T14:52:15.893Z,11.70
2018-09-04T14:54:43.672Z,11.87
2018-09-04T14:57:11.663Z,11.43
2018-09-04T14:59:39.458Z,10.77
2018-09-04T15:02:07.344Z,11.20
2018-09-04T15:04:35.163Z,11.83
2018-09-04T15:07:02.955Z,11.70
2018-09-04T15:09:30.758Z,11.00
2018-09-04T15:11:58.573Z,11.47
2018-09-04T15:14:26.340Z,11.77
2018-09-04T15:16:55.589Z,10.30
2018-09-04T15:19:23.497Z,10.37
2018-09-04T15:21:51.335Z,11.60
2018-09-04T15:24:19.045Z,12.00
2018-09-04T15:26:46.790Z,11.47
2018-09-04T15:29:14.548Z,10.87
2018-09-04T15:31:42.362Z,10.70
2018-09-04T15:34:10.087Z,10.27
2018-09-04T15:36:37.874Z,10.50
2018-09-04T15:39:06.611Z,11.20
2018-09-04T15:41:34.352Z,10.70
2018-09-04T15:44:02.165Z,12.47
2018-09-04T15:46:37.713Z,11.80
2018-09-04T15:49:12.064Z,11.80
2018-09-04T15:51:39.891Z,10.57
2018-09-04T15:54:07.684Z,11.63
2018-09-04T15:56:35.520Z,10.83
2018-09-04T15:59:03.191Z,11.50
2018-09-04T16:01:30.956Z,12.50
2018-09-04T16:03:58.739Z,12.10
2018-09-04T16:06:26.521Z,12.53
2018-09-04T16:08:54.307Z,13.73
2018-09-04T16:11:22.094Z,12.27
2018-09-04T16:13:49.905Z,13.97
2018-09-04T16:16:17.862Z,14.30
2018-09-04T16:18:45.628Z,16.47
2018-09-04T16:21:13.418Z,20.70
2018-09-04T16:23:41.201Z,20.80
2018-09-04T16:26:08.990Z,20.40
2018-09-04T16:28:37.360Z,20.70
2018-09-04T16:31:05.136Z,22.17
2018-09-04T16:33:32.889Z,23.00
2018-09-04T16:36:00.693Z,22.10
2018-09-04T16:38:28.452Z,22.80
2018-09-04T16:40:56.499Z,23.93
2018-09-04T16:43:24.264Z,23.73
2018-09-04T16:45:52.033Z,23.60
2018-09-04T16:48:19.843Z,24.93
2018-09-04T16:50:47.693Z,25.60
2018-09-04T16:53:15.974Z,25.67
2018-09-04T16:55:43.820Z,23.20
2018-09-04T16:58:11.691Z,23.87
2018-09-04T17:00:39.495Z,24.97
2018-09-04T17:03:07.401Z,23.83
2018-09-04T17:05:36.321Z,24.70
2018-09-04T17:08:04.413Z,25.00
2018-09-04T17:10:32.173Z,24.87
2018-09-04T17:13:00.002Z,24.17
2018-09-04T17:15:27.816Z,21.87
2018-09-04T17:17:55.601Z,26.47
2018-09-04T17:20:23.348Z,23.50
2018-09-04T17:22:51.121Z,23.57
2018-09-04T17:25:18.937Z,23.57
2018-09-04T17:27:46.749Z,23.07
2018-09-04T17:30:14.705Z,24.20
2018-09-04T17:32:42.633Z,24.87
2018-09-04T17:35:10.448Z,25.20
2018-09-04T17:37:38.204Z,23.17
2018-09-04T17:40:06.106Z,22.20
2018-09-04T17:42:34.229Z,24.60
2018-09-04T17:45:02.007Z,21.20
2018-09-04T17:47:31.256Z,22.47
2018-09-04T17:49:59.130Z,23.67
2018-09-04T17:52:26.913Z,22.20
2018-09-04T17:54:54.810Z,22.10
2018-09-04T17:57:22.527Z,24.83
2018-09-04T17:59:50.287Z,26.00
2018-09-04T18:02:18.419Z,24.10
2018-09-04T18:04:46.184Z,24.93
2018-09-04T18:07:13.996Z,24.97
2018-09-04T18:09:41.745Z,26.30
2018-09-04T18:12:09.623Z,26.07
2018-09-04T18:14:37.452Z,29.17
2018-09-04T18:17:06.433Z,26.10
2018-09-04T18:19:34.337Z,27.57
2018-09-04T18:22:02.164Z,27.77
2018-09-04T18:24:30.121Z,28.97
2018-09-04T18:26:58.012Z,28.30
2018-09-04T18:29:25.791Z,31.90
2018-09-04T18:31:53.532Z,31.80
2018-09-04T18:34:21.310Z,31.77
2018-09-04T18:36:49.066Z,33.53
2018-09-04T18:39:16.865Z,34.23
2018-09-04T18:41:45.510Z,31.53
2018-09-04T18:44:13.278Z,29.97
2018-09-04T18:46:41.062Z,34.47
2018-09-04T18:49:08.879Z,30.30
2018-09-04T18:51:36.650Z,29.67
2018-09-04T18:54:04.480Z,29.60
2018-09-04T18:56:32.267Z,31.27
2018-09-04T18:59:00.033Z,31.50
2018-09-04T19:01:27.764Z,30.37
2018-09-04T19:03:55.568Z,27.40
2018-09-04T19:06:23.292Z,29.53
2018-09-04T19:08:51.063Z,27.93
2018-09-04T19:11:18.833Z,26.73
2018-09-04T19:13:46.664Z,26.77
2018-09-04T19:16:14.420Z,27.87
2018-09-04T19:18:42.190Z,26.17
2018-09-04T19:21:09.953Z,28.70
2018-09-04T19:23:37.739Z,26.00
2018-09-04T19:26:05.508Z,28.23
2018-09-04T19:28:33.248Z,32.03
2018-09-04T19:31:03.716Z,26.70
2018-09-04T19:33:31.677Z,26.50
2018-09-04T19:35:59.404Z,28.93
2018-09-04T19:38:27.920Z,30.53
2018-09-04T19:40:55.752Z,28.87
2018-09-04T19:43:23.542Z,28.83
2018-09-04T19:45:51.243Z,25.37
2018-09-04T19:48:19.028Z,27.87
2018-09-04T19:50:46.886Z,28.97
2018-09-04T19:53:14.652Z,28.67
2018-09-04T19:55:42.454Z,25.47
2018-09-04T19:58:10.212Z,29.10
2018-09-04T20:00:38.020Z,29.07
2018-09-04T20:03:05.771Z,28.10
2018-09-04T20:05:33.591Z,29.57
2018-09-04T20:08:01.353Z,33.83
2018-09-04T20:10:29.100Z,27.97
2018-09-04T20:12:56.914Z,29.67
2018-09-04T20:15:24.972Z,29.70
2018-09-04T20:17:52.740Z,29.20
2018-09-04T20:20:20.477Z,30.17
2018-09-04T20:22:48.594Z,31.63
2018-09-04T20:25:16.350Z,30.80
2018-09-04T20:27:44.097Z,28.33
2018-09-04T20:30:11.876Z,29.83
2018-09-04T20:32:39.711Z,30.63
2018-09-04T20:35:07.508Z,28.73
2018-09-04T20:37:35.312Z,32.37
2018-09-04T20:40:03.236Z,29.27
2018-09-04T20:42:31.030Z,31.03
2018-09-04T20:44:58.849Z,29.60
2018-09-04T20:47:26.669Z,32.50
2018-09-04T20:49:54.464Z,29.37
2018-09-04T20:52:22.229Z,32.70
2018-09-04T20:54:49.963Z,31.80
2018-09-04T20:57:29.181Z,29.37
2018-09-04T21:00:10.795Z,30.07
2018-09-04T21:02:49.965Z,32.10
2018-09-04T21:05:29.266Z,30.53
2018-09-04T21:08:14.962Z,32.83
2018-09-04T21:10:43.288Z,32.23
2018-09-04T21:13:11.877Z,29.40
2018-09-04T21:15:39.641Z,33.87
2018-09-04T21:18:07.540Z,30.90
2018-09-04T21:20:35.375Z,36.50
2018-09-04T21:23:03.258Z,33.23
2018-09-04T21:25:31.008Z,45.23
2018-09-04T21:27:58.817Z,33.90
2018-09-04T21:30:26.707Z,31.23
2018-09-04T21:32:54.476Z,31.30
2018-09-04T21:35:22.378Z,33.27
2018-09-04T21:37:50.120Z,31.30
2018-09-04T21:40:17.950Z,35.03
2018-09-04T21:42:45.993Z,33.37
2018-09-04T21:45:13.774Z,33.80
2018-09-04T21:47:41.538Z,36.27
2018-09-04T21:50:09.680Z,35.43
2018-09-04T21:52:37.433Z,35.00
2018-09-04T21:55:05.971Z,35.23
2018-09-04T21:57:33.712Z,35.47
2018-09-04T22:00:01.507Z,36.10
2018-09-04T22:02:29.261Z,34.87
2018-09-04T22:04:57.036Z,33.97
2018-09-04T22:07:24.786Z,35.47
2018-09-04T22:09:52.560Z,39.90
2018-09-04T22:12:20.305Z,38.77
2018-09-04T22:14:48.046Z,34.00
2018-09-04T22:17:15.808Z,38.70
2018-09-04T22:19:43.597Z,36.13
2018-09-04T22:22:11.385Z,35.00
2018-09-04T22:24:39.093Z,38.00
2018-09-04T22:27:08.697Z,35.47
2018-09-04T22:29:39.412Z,34.50
2018-09-04T22:32:07.207Z,35.57
2018-09-04T22:34:35.011Z,35.23
2018-09-04T22:37:03.780Z,36.77
2018-09-04T22:39:31.498Z,32.30
2018-09-04T22:41:59.369Z,33.67
2018-09-04T22:44:27.089Z,33.20
2018-09-04T22:46:54.816Z,35.90
2018-09-04T22:49:22.557Z,35.37
2018-09-04T22:51:51.011Z,36.27
2018-09-04T22:54:18.907Z,33.10
2018-09-04T22:56:46.641Z,35.30
2018-09-04T22:59:14.613Z,34.10
2018-09-04T23:01:43.125Z,33.77
2018-09-04T23:04:11.220Z,34.33
2018-09-04T23:06:39.226Z,34.03
2018-09-04T23:09:07.298Z,34.17
2018-09-04T23:11:35.234Z,33.93
2018-09-04T23:14:03.007Z,33.10
2018-09-04T23:16:30.815Z,34.10
2018-09-04T23:18:58.585Z,34.70
2018-09-04T23:21:26.337Z,33.83
2018-09-04T23:23:54.062Z,32.10
2018-09-04T23:26:21.848Z,32.77
2018-09-04T23:28:49.581Z,32.63
2018-09-04T23:31:17.370Z,33.47
2018-09-04T23:33:45.818Z,34.10
2018-09-04T23:36:13.529Z,34.23
2018-09-04T23:38:41.232Z,35.63
2018-09-04T23:41:08.955Z,33.33
2018-09-04T23:43:36.707Z,35.40
2018-09-04T23:46:04.460Z,36.70
2018-09-04T23:48:32.172Z,32.80
2018-09-04T23:51:01.154Z,34.97
2018-09-04T23:53:28.871Z,34.30
2018-09-04T23:55:56.597Z,32.50
2018-09-04T23:58:24.357Z,31.20
